createdAt,value
2019-04-07T00:00:07.412Z,12.42
2019-04-07T00:01:06.860Z,12.49
2019-04-07T00:02:06.895Z,12.40
2019-04-07T00:03:06.959Z,12.45
2019-04-07T00:04:06.849Z,12.42
2019-04-07T00:05:12.378Z,12.49
2019-04-07T00:06:06.839Z,12.45
2019-04-07T00:07:06.910Z,12.50
2019-04-07T00:08:06.837Z,12.57
2019-04-07T00:09:07.094Z,12.55
2019-04-07T00:10:07.159Z,12.40
2019-04-07T00:11:06.817Z,12.39
2019-04-07T00:12:07.102Z,12.36
2019-04-07T00:13:07.119Z,12.31
2019-04-07T00:14:07.095Z,12.35
2019-04-07T00:15:06.997Z,12.25
2019-04-07T00:16:07.202Z,12.24
2019-04-07T00:17:06.791Z,12.27
2019-04-07T00:18:06.786Z,12.24
2019-04-07T00:19:06.782Z,12.21
2019-04-07T00:20:07.313Z,12.12
2019-04-07T00:21:06.772Z,12.07
2019-04-07T00:22:06.768Z,12.03
2019-04-07T00:23:06.842Z,11.94
2019-04-07T00:24:06.764Z,11.90
2019-04-07T00:25:06.753Z,11.88
2019-04-07T00:26:06.748Z,11.81
2019-04-07T00:27:06.918Z,11.78
2019-04-07T00:28:06.739Z,11.72
2019-04-07T00:29:06.734Z,11.68
2019-04-07T00:30:06.730Z,11.70
2019-04-07T00:31:06.726Z,11.62
2019-04-07T00:32:06.725Z,11.69
2019-04-07T00:33:06.720Z,11.65
2019-04-07T00:34:07.033Z,11.73
2019-04-07T00:35:06.708Z,11.80
2019-04-07T00:36:07.319Z,11.77
2019-04-07T00:37:07.283Z,11.72
2019-04-07T00:38:07.338Z,11.68
2019-04-07T00:39:06.882Z,11.66
2019-04-07T00:40:07.023Z,11.72
2019-04-07T00:41:06.845Z,11.62
2019-04-07T00:42:07.192Z,11.59
2019-04-07T00:43:06.666Z,11.62
2019-04-07T00:44:07.117Z,11.50
2019-04-07T00:45:06.665Z,11.47
2019-04-07T00:46:06.656Z,11.35
2019-04-07T00:47:06.657Z,11.25
2019-04-07T00:48:06.906Z,11.23
2019-04-07T00:49:06.657Z,11.25
2019-04-07T00:50:06.651Z,11.22
2019-04-07T00:51:06.678Z,11.22
2019-04-07T00:52:07.072Z,11.18
2019-04-07T00:53:06.619Z,11.22
2019-04-07T00:54:07.282Z,11.22
2019-04-07T00:55:06.636Z,11.18
2019-04-07T00:56:06.670Z,11.22
2019-04-07T00:57:06.670Z,11.12
2019-04-07T00:58:07.105Z,11.14
2019-04-07T00:59:06.589Z,10.97
2019-04-07T01:00:07.074Z,10.94
2019-04-07T01:01:06.586Z,11.00
2019-04-07T01:02:06.962Z,10.90
2019-04-07T01:03:07.132Z,10.94
2019-04-07T01:04:06.568Z,10.90
2019-04-07T01:05:07.243Z,10.86
2019-04-07T01:06:06.560Z,10.84
2019-04-07T01:07:06.552Z,10.90
2019-04-07T01:08:06.544Z,10.72
2019-04-07T01:09:07.008Z,10.75
2019-04-07T01:10:06.537Z,10.69
2019-04-07T01:11:06.536Z,10.76
2019-04-07T01:12:07.215Z,10.93
2019-04-07T01:13:06.559Z,10.87
2019-04-07T01:14:07.007Z,10.92
2019-04-07T01:15:06.513Z,10.84
2019-04-07T01:16:06.667Z,10.86
2019-04-07T01:17:07.065Z,10.72
2019-04-07T01:18:06.495Z,10.76
2019-04-07T01:19:07.180Z,10.78
2019-04-07T01:20:06.483Z,10.67
2019-04-07T01:21:06.477Z,10.63
2019-04-07T01:22:06.521Z,10.60
2019-04-07T01:23:06.983Z,10.69
2019-04-07T01:24:06.515Z,10.76
2019-04-07T01:25:07.091Z,10.71
2019-04-07T01:26:06.472Z,10.75
2019-04-07T01:27:06.608Z,10.67
2019-04-07T01:28:06.673Z,10.74
2019-04-07T01:29:06.436Z,10.84
2019-04-07T01:30:07.113Z,10.86
2019-04-07T01:31:07.129Z,10.92
2019-04-07T01:32:07.119Z,10.92
2019-04-07T01:33:06.477Z,10.92
2019-04-07T01:34:06.409Z,10.92
2019-04-07T01:35:07.026Z,10.79
2019-04-07T01:36:06.413Z,10.86
2019-04-07T01:37:06.395Z,10.74
2019-04-07T01:38:07.114Z,10.76
2019-04-07T01:39:06.442Z,10.78
2019-04-07T01:40:06.378Z,10.63
2019-04-07T01:41:06.370Z,10.67
2019-04-07T01:42:06.584Z,10.59
2019-04-07T01:43:06.477Z,10.60
2019-04-07T01:44:06.355Z,10.60
2019-04-07T01:45:06.351Z,10.53
2019-04-07T01:46:06.415Z,10.54
2019-04-07T01:47:06.342Z,10.56
2019-04-07T01:48:06.333Z,10.54
2019-04-07T01:49:08.049Z,10.51
2019-04-07T01:50:06.576Z,10.44
2019-04-07T01:51:06.319Z,10.54
2019-04-07T01:52:06.316Z,10.46
2019-04-07T01:53:06.709Z,10.42
2019-04-07T01:54:06.421Z,10.35
2019-04-07T01:55:06.431Z,10.35
2019-04-07T01:56:06.450Z,10.33
2019-04-07T01:57:06.285Z,10.37
2019-04-07T01:58:06.279Z,10.48
2019-04-07T01:59:06.700Z,10.53
2019-04-07T02:00:06.268Z,10.59
2019-04-07T02:01:06.554Z,10.53
2019-04-07T02:02:06.261Z,10.51
2019-04-07T02:03:06.410Z,10.54
2019-04-07T02:04:06.778Z,10.56
2019-04-07T02:05:06.738Z,10.59
2019-04-07T02:06:06.838Z,10.49
2019-04-07T02:07:06.231Z,10.48
2019-04-07T02:08:06.656Z,10.42
2019-04-07T02:09:06.218Z,10.44
2019-04-07T02:10:06.212Z,10.41
2019-04-07T02:11:06.210Z,10.40
2019-04-07T02:12:06.911Z,10.41
2019-04-07T02:13:06.201Z,10.46
2019-04-07T02:14:07.014Z,10.46
2019-04-07T02:15:06.347Z,10.51
2019-04-07T02:16:06.179Z,10.38
2019-04-07T02:17:06.482Z,10.46
2019-04-07T02:18:06.171Z,10.51
2019-04-07T02:19:06.283Z,10.48
2019-04-07T02:20:06.789Z,10.41
2019-04-07T02:21:06.329Z,10.40
2019-04-07T02:22:06.922Z,10.35
2019-04-07T02:23:06.344Z,10.33
2019-04-07T02:24:06.128Z,10.28
2019-04-07T02:25:06.393Z,10.25
2019-04-07T02:26:06.123Z,10.20
2019-04-07T02:27:06.131Z,10.19
2019-04-07T02:28:06.450Z,10.23
2019-04-07T02:29:06.656Z,10.25
2019-04-07T02:30:06.110Z,10.28
2019-04-07T02:31:06.231Z,10.16
2019-04-07T02:32:06.236Z,10.25
2019-04-07T02:33:06.281Z,10.22
2019-04-07T02:34:06.834Z,10.15
2019-04-07T02:35:06.076Z,10.12
2019-04-07T02:36:16.033Z,10.23
2019-04-07T02:37:06.621Z,10.17
2019-04-07T02:38:06.239Z,10.04
2019-04-07T02:39:06.046Z,10.12
2019-04-07T02:40:06.312Z,10.09
2019-04-07T02:41:06.231Z,10.10
2019-04-07T02:42:06.033Z,10.12
2019-04-07T02:43:06.038Z,10.20
2019-04-07T02:44:06.862Z,10.15
2019-04-07T02:45:06.013Z,10.31
2019-04-07T02:46:06.014Z,10.15
2019-04-07T02:47:06.464Z,10.12
2019-04-07T02:48:06.894Z,10.05
2019-04-07T02:49:05.986Z,9.99
2019-04-07T02:50:07.109Z,9.97
2019-04-07T02:51:05.978Z,9.97
2019-04-07T02:52:05.969Z,9.87
2019-04-07T02:53:05.964Z,9.73
2019-04-07T02:54:05.982Z,9.74
2019-04-07T02:55:06.293Z,9.69
2019-04-07T02:56:06.614Z,9.73
2019-04-07T02:57:06.437Z,9.73
2019-04-07T02:58:05.978Z,9.76
2019-04-07T02:59:05.964Z,9.74
2019-04-07T03:00:06.362Z,9.64
2019-04-07T03:01:06.152Z,9.72
2019-04-07T03:02:06.001Z,9.64
2019-04-07T03:03:05.907Z,9.56
2019-04-07T03:04:05.900Z,9.56
2019-04-07T03:05:06.410Z,9.51
2019-04-07T03:06:06.840Z,9.48
2019-04-07T03:07:06.769Z,9.44
2019-04-07T03:08:05.922Z,9.47
2019-04-07T03:09:05.873Z,9.69
2019-04-07T03:10:05.866Z,9.76
2019-04-07T03:11:05.865Z,9.83
2019-04-07T03:12:05.856Z,9.91
2019-04-07T03:13:06.222Z,9.89
2019-04-07T03:14:07.055Z,9.86
2019-04-07T03:15:06.836Z,9.77
2019-04-07T03:16:05.830Z,9.82
2019-04-07T03:17:06.667Z,9.66
2019-04-07T03:18:06.860Z,9.77
2019-04-07T03:19:06.604Z,9.68
2019-04-07T03:20:07.008Z,9.59
2019-04-07T03:21:05.805Z,9.55
2019-04-07T03:22:06.533Z,9.55
2019-04-07T03:23:05.794Z,9.55
2019-04-07T03:24:06.211Z,9.55
2019-04-07T03:25:06.538Z,9.61
2019-04-07T03:26:05.773Z,9.51
2019-04-07T03:27:06.562Z,9.48
2019-04-07T03:28:06.723Z,9.37
2019-04-07T03:29:05.766Z,9.40
2019-04-07T03:30:06.190Z,9.39
2019-04-07T03:31:06.155Z,9.46
2019-04-07T03:32:07.870Z,9.43
2019-04-07T03:33:08.807Z,9.41
2019-04-07T03:34:06.318Z,9.28
2019-04-07T03:35:06.469Z,9.36
2019-04-07T03:36:08.590Z,9.32
2019-04-07T03:37:27.047Z,9.36
2019-04-07T03:38:06.484Z,9.28
2019-04-07T03:39:06.484Z,9.26
2019-04-07T03:40:06.542Z,9.34
2019-04-07T03:41:05.681Z,9.40
2019-04-07T03:42:06.261Z,9.37
2019-04-07T03:43:05.669Z,9.31
2019-04-07T03:44:06.119Z,9.34
2019-04-07T03:45:06.154Z,9.34
2019-04-07T03:46:06.018Z,9.29
2019-04-07T03:47:06.989Z,9.26
2019-04-07T03:48:06.904Z,9.25
2019-04-07T03:49:06.050Z,9.37
2019-04-07T03:50:05.627Z,9.23
2019-04-07T03:51:06.674Z,9.21
2019-04-07T03:52:05.776Z,9.31
2019-04-07T03:53:06.083Z,9.23
2019-04-07T03:54:05.600Z,9.28
2019-04-07T03:55:06.586Z,9.26
2019-04-07T03:56:05.961Z,9.21
2019-04-07T03:57:05.581Z,9.18
2019-04-07T03:58:05.844Z,9.14
2019-04-07T03:59:05.639Z,9.02
2019-04-07T04:00:05.895Z,9.10
2019-04-07T04:01:05.556Z,9.11
2019-04-07T04:02:05.549Z,9.02
2019-04-07T04:03:05.544Z,9.02
2019-04-07T04:04:05.653Z,8.99
2019-04-07T04:05:05.528Z,8.89
2019-04-07T04:06:05.525Z,8.92
2019-04-07T04:07:20.694Z,8.95
2019-04-07T04:08:06.169Z,8.92
2019-04-07T04:09:05.964Z,8.92
2019-04-07T04:10:06.541Z,8.94
2019-04-07T04:11:06.209Z,8.92
2019-04-07T04:12:07.089Z,8.91
2019-04-07T04:13:05.483Z,8.91
2019-04-07T04:14:05.470Z,9.11
2019-04-07T04:15:06.692Z,9.08
2019-04-07T04:16:06.185Z,9.14
2019-04-07T04:17:06.284Z,9.18
2019-04-07T04:18:05.531Z,9.14
2019-04-07T04:19:06.626Z,9.16
2019-04-07T04:20:06.220Z,9.19
2019-04-07T04:21:05.440Z,9.14
2019-04-07T04:22:05.928Z,9.03
2019-04-07T04:23:05.915Z,9.13
2019-04-07T04:24:06.066Z,9.14
2019-04-07T04:25:05.403Z,9.11
2019-04-07T04:26:06.335Z,9.06
2019-04-07T04:27:05.394Z,9.02
2019-04-07T04:28:05.377Z,9.03
2019-04-07T04:29:05.750Z,8.95
2019-04-07T04:30:05.366Z,9.00
2019-04-07T04:31:05.357Z,9.10
2019-04-07T04:32:05.847Z,9.06
2019-04-07T04:33:06.267Z,9.18
2019-04-07T04:34:05.495Z,9.14
2019-04-07T04:35:06.460Z,9.14
2019-04-07T04:36:05.703Z,9.18
2019-04-07T04:37:05.324Z,9.14
2019-04-07T04:38:06.013Z,9.22
2019-04-07T04:39:05.322Z,9.32
2019-04-07T04:40:05.298Z,9.28
2019-04-07T04:41:05.295Z,9.28
2019-04-07T04:42:05.645Z,9.31
2019-04-07T04:43:05.281Z,9.29
2019-04-07T04:44:05.272Z,9.32
2019-04-07T04:45:06.204Z,9.29
2019-04-07T04:46:08.666Z,9.23
2019-04-07T04:47:05.251Z,9.23
2019-04-07T04:48:05.243Z,9.22
2019-04-07T04:49:05.236Z,9.19
2019-04-07T04:50:06.336Z,9.23
2019-04-07T04:51:05.414Z,9.19
2019-04-07T04:52:05.301Z,9.18
2019-04-07T04:53:06.105Z,9.22
2019-04-07T04:54:05.242Z,9.23
2019-04-07T04:55:05.194Z,9.08
2019-04-07T04:56:05.578Z,9.18
2019-04-07T04:57:07.703Z,9.21
2019-04-07T04:58:05.469Z,9.10
2019-04-07T04:59:06.023Z,9.11
2019-04-07T05:00:05.274Z,9.06
2019-04-07T05:01:05.151Z,9.06
2019-04-07T05:02:05.673Z,9.13
2019-04-07T05:03:05.139Z,9.14
2019-04-07T05:04:05.133Z,9.00
2019-04-07T05:05:08.079Z,9.04
2019-04-07T05:06:05.119Z,9.06
2019-04-07T05:07:05.706Z,8.99
2019-04-07T05:08:05.526Z,9.11
2019-04-07T05:09:05.613Z,9.22
2019-04-07T05:10:05.696Z,9.21
2019-04-07T05:11:05.085Z,9.21
2019-04-07T05:12:06.123Z,9.29
2019-04-07T05:13:05.079Z,9.32
2019-04-07T05:14:05.063Z,9.18
2019-04-07T05:15:05.128Z,9.32
2019-04-07T05:16:05.683Z,9.29
2019-04-07T05:17:05.209Z,9.32
2019-04-07T05:18:05.263Z,9.28
2019-04-07T05:19:05.037Z,9.39
2019-04-07T05:20:05.777Z,9.39
2019-04-07T05:21:05.239Z,9.54
2019-04-07T05:22:05.067Z,9.54
2019-04-07T05:23:05.235Z,9.55
2019-04-07T05:24:05.692Z,9.62
2019-04-07T05:25:05.144Z,9.72
2019-04-07T05:26:05.728Z,9.84
2019-04-07T05:27:04.978Z,10.09
2019-04-07T05:28:04.972Z,10.40
2019-04-07T05:29:04.965Z,10.84
2019-04-07T05:30:05.032Z,10.92
2019-04-07T05:31:05.627Z,11.25
2019-04-07T05:32:05.645Z,11.48
2019-04-07T05:33:05.547Z,11.59
2019-04-07T05:34:05.387Z,11.88
2019-04-07T05:35:05.897Z,12.07
2019-04-07T05:36:04.918Z,12.40
2019-04-07T05:37:04.913Z,12.86
2019-04-07T05:38:06.618Z,12.87
2019-04-07T05:39:05.337Z,13.04
2019-04-07T05:40:04.913Z,12.97
2019-04-07T05:41:05.426Z,12.94
2019-04-07T05:42:04.887Z,12.94
2019-04-07T05:43:04.880Z,13.09
2019-04-07T05:44:04.871Z,13.25
2019-04-07T05:45:05.140Z,13.22
2019-04-07T05:46:07.093Z,13.59
2019-04-07T05:47:04.856Z,13.83
2019-04-07T05:48:05.442Z,13.86
2019-04-07T05:49:05.368Z,14.08
2019-04-07T05:50:05.299Z,14.23
2019-04-07T05:51:05.518Z,14.17
2019-04-07T05:52:05.860Z,14.40
2019-04-07T05:53:06.791Z,14.43
2019-04-07T05:54:04.822Z,14.65
2019-04-07T05:55:04.880Z,14.89
2019-04-07T05:56:06.018Z,15.09
2019-04-07T05:57:05.454Z,15.09
2019-04-07T05:58:07.226Z,15.36
2019-04-07T05:59:04.803Z,15.29
2019-04-07T06:00:04.790Z,15.43
2019-04-07T06:01:05.225Z,15.65
2019-04-07T06:02:04.782Z,15.52
2019-04-07T06:03:08.243Z,14.91
2019-04-07T06:04:05.541Z,15.14
2019-04-07T06:05:05.334Z,15.37
2019-04-07T06:06:05.032Z,15.22
2019-04-07T06:07:04.765Z,15.57
2019-04-07T06:08:20.909Z,16.13
2019-04-07T06:09:05.200Z,16.57
2019-04-07T06:10:05.373Z,16.94
2019-04-07T06:11:05.019Z,17.46
2019-04-07T06:12:09.084Z,17.33
2019-04-07T06:13:05.330Z,16.89
2019-04-07T06:14:05.008Z,15.67
2019-04-07T06:15:05.279Z,15.14
2019-04-07T06:16:05.349Z,15.42
2019-04-07T06:17:04.958Z,15.82
2019-04-07T06:18:05.139Z,16.57
2019-04-07T06:19:07.921Z,16.20
2019-04-07T06:20:04.724Z,15.86
2019-04-07T06:21:04.822Z,15.91
2019-04-07T06:22:07.436Z,16.51
2019-04-07T06:23:04.714Z,17.22
2019-04-07T06:24:04.790Z,17.14
2019-04-07T06:25:05.773Z,17.60
2019-04-07T06:26:09.256Z,18.00
2019-04-07T06:27:05.500Z,18.18
2019-04-07T06:28:05.410Z,18.13
2019-04-07T06:29:04.822Z,18.50
2019-04-07T06:30:04.704Z,18.80
2019-04-07T06:31:04.920Z,18.99
2019-04-07T06:32:05.548Z,19.30
2019-04-07T06:33:06.972Z,18.68
2019-04-07T06:34:08.680Z,17.86
2019-04-07T06:35:05.117Z,16.99
2019-04-07T06:36:05.032Z,16.28
2019-04-07T06:37:04.686Z,16.02
2019-04-07T06:38:06.147Z,15.86
2019-04-07T06:39:04.705Z,15.77
2019-04-07T06:40:04.760Z,16.10
2019-04-07T06:41:04.682Z,16.33
2019-04-07T06:42:05.790Z,16.47
2019-04-07T06:43:06.327Z,16.00
2019-04-07T06:44:11.412Z,15.86
2019-04-07T06:45:05.316Z,16.47
2019-04-07T06:46:04.890Z,17.16
2019-04-07T06:47:04.730Z,17.89
2019-04-07T06:48:07.652Z,17.67
2019-04-07T06:49:04.665Z,18.01
2019-04-07T06:50:05.630Z,18.49
2019-04-07T06:51:04.985Z,18.49
2019-04-07T06:52:04.859Z,18.49
2019-04-07T06:53:05.351Z,17.06
2019-04-07T06:54:04.819Z,16.49
2019-04-07T06:55:04.659Z,16.50
2019-04-07T06:56:05.221Z,16.78
2019-04-07T06:57:06.351Z,16.83
2019-04-07T06:58:08.074Z,16.58
2019-04-07T06:59:04.671Z,15.86
2019-04-07T07:00:04.655Z,16.28
2019-04-07T07:01:04.715Z,16.39
2019-04-07T07:02:05.421Z,16.75
2019-04-07T07:03:04.655Z,16.87
2019-04-07T07:04:08.600Z,16.76
2019-04-07T07:05:05.182Z,16.33
2019-04-07T07:06:04.755Z,15.90
2019-04-07T07:07:06.327Z,15.90
2019-04-07T07:08:05.174Z,16.68
2019-04-07T07:09:04.646Z,17.57
2019-04-07T07:10:06.292Z,17.71
2019-04-07T07:11:05.809Z,17.63
2019-04-07T07:12:05.102Z,18.52
2019-04-07T07:13:09.324Z,18.73
2019-04-07T07:14:04.643Z,18.10
2019-04-07T07:15:04.710Z,18.16
2019-04-07T07:16:08.524Z,18.43
2019-04-07T07:17:05.357Z,18.49
2019-04-07T07:18:04.726Z,18.26
2019-04-07T07:19:05.200Z,18.20
2019-04-07T07:20:05.744Z,18.05
2019-04-07T07:21:05.075Z,18.16
2019-04-07T07:22:10.073Z,18.00
2019-04-07T07:23:04.716Z,18.18
2019-04-07T07:24:04.974Z,18.23
2019-04-07T07:25:05.205Z,18.60
2019-04-07T07:26:04.646Z,18.29
2019-04-07T07:27:07.286Z,18.92
2019-04-07T07:28:04.640Z,18.78
2019-04-07T07:29:06.495Z,18.71
2019-04-07T07:30:04.652Z,19.07
2019-04-07T07:31:05.313Z,18.37
2019-04-07T07:32:04.927Z,17.70
2019-04-07T07:33:07.306Z,16.87
2019-04-07T07:34:05.059Z,16.23
2019-04-07T07:35:05.086Z,15.55
2019-04-07T07:36:04.642Z,15.82
2019-04-07T07:37:05.210Z,15.51
2019-04-07T07:38:04.930Z,15.47
2019-04-07T07:39:08.561Z,15.35
2019-04-07T07:40:07.495Z,15.25
2019-04-07T07:41:04.764Z,15.00
2019-04-07T07:42:04.635Z,15.04
2019-04-07T07:43:04.639Z,15.14
2019-04-07T07:44:07.577Z,15.14
2019-04-07T07:45:08.100Z,15.14
2019-04-07T07:46:04.631Z,15.29
2019-04-07T07:47:04.630Z,15.40
2019-04-07T07:48:05.285Z,15.49
2019-04-07T07:49:04.628Z,15.51
2019-04-07T07:50:05.393Z,15.59
2019-04-07T07:51:07.187Z,15.62
2019-04-07T07:52:04.963Z,15.68
2019-04-07T07:53:04.748Z,15.79
2019-04-07T07:54:04.735Z,15.88
2019-04-07T07:55:04.613Z,15.92
2019-04-07T07:56:08.186Z,15.95
2019-04-07T07:57:04.961Z,16.10
2019-04-07T07:58:04.607Z,15.86
2019-04-07T07:59:04.668Z,15.70
2019-04-07T08:00:06.971Z,15.90
2019-04-07T08:01:05.336Z,16.00
2019-04-07T08:02:04.595Z,15.98
2019-04-07T08:03:04.864Z,16.16
2019-04-07T08:04:05.225Z,16.10
2019-04-07T08:05:05.327Z,16.20
2019-04-07T08:06:07.955Z,16.28
2019-04-07T08:07:05.431Z,16.29
2019-04-07T08:08:04.800Z,16.21
2019-04-07T08:09:11.173Z,16.31
2019-04-07T08:10:04.875Z,16.23
2019-04-07T08:11:04.633Z,16.33
2019-04-07T08:12:05.166Z,16.41
2019-04-07T08:13:07.489Z,16.42
2019-04-07T08:14:04.570Z,16.57
2019-04-07T08:15:04.917Z,16.42
2019-04-07T08:16:05.089Z,16.43
2019-04-07T08:17:04.561Z,16.49
2019-04-07T08:18:07.295Z,16.36
2019-04-07T08:19:08.411Z,16.35
2019-04-07T08:20:04.552Z,16.51
2019-04-07T08:21:04.549Z,16.61
2019-04-07T08:22:06.457Z,16.61
2019-04-07T08:23:05.242Z,16.81
2019-04-07T08:24:04.545Z,16.83
2019-04-07T08:25:05.216Z,16.74
2019-04-07T08:26:04.964Z,16.93
2019-04-07T08:27:05.147Z,17.02
2019-04-07T08:28:04.730Z,16.81
2019-04-07T08:29:06.796Z,16.97
2019-04-07T08:30:06.984Z,17.06
2019-04-07T08:31:04.529Z,17.15
2019-04-07T08:32:05.352Z,17.06
2019-04-07T08:33:04.893Z,17.19
2019-04-07T08:34:04.517Z,17.27
2019-04-07T08:35:05.633Z,17.51
2019-04-07T08:36:04.514Z,17.39
2019-04-07T08:37:04.825Z,17.20
2019-04-07T08:38:04.617Z,17.24
2019-04-07T08:39:05.013Z,17.27
2019-04-07T08:40:07.243Z,17.38
2019-04-07T08:41:08.725Z,17.45
2019-04-07T08:42:09.604Z,17.23
2019-04-07T08:43:04.496Z,17.30
2019-04-07T08:44:04.497Z,17.48
2019-04-07T08:45:04.626Z,17.67
2019-04-07T08:46:05.122Z,17.67
2019-04-07T08:47:04.485Z,17.64
2019-04-07T08:48:05.012Z,17.59
2019-04-07T08:49:04.482Z,17.64
2019-04-07T08:50:04.505Z,17.67
2019-04-07T08:51:04.726Z,17.65
2019-04-07T08:52:08.744Z,17.68
2019-04-07T08:53:04.695Z,17.68
2019-04-07T08:54:05.076Z,17.64
2019-04-07T08:55:05.004Z,17.76
2019-04-07T08:56:06.868Z,17.71
2019-04-07T08:57:04.625Z,17.63
2019-04-07T08:58:05.677Z,17.65
2019-04-07T08:59:08.459Z,17.86
2019-04-07T09:00:05.117Z,18.01
2019-04-07T09:01:05.294Z,18.04
2019-04-07T09:02:05.388Z,17.94
2019-04-07T09:03:10.528Z,17.85
2019-04-07T09:04:04.534Z,17.67
2019-04-07T09:05:04.514Z,17.71
2019-04-07T09:06:04.769Z,17.71
2019-04-07T09:07:05.117Z,17.76
2019-04-07T09:08:06.067Z,17.74
2019-04-07T09:09:07.218Z,17.85
2019-04-07T09:10:04.446Z,17.74
2019-04-07T09:11:04.694Z,17.56
2019-04-07T09:12:04.840Z,17.57
2019-04-07T09:13:07.971Z,17.59
2019-04-07T09:14:06.364Z,17.67
2019-04-07T09:15:05.291Z,17.46
2019-04-07T09:16:04.721Z,17.67
2019-04-07T09:17:04.702Z,17.67
2019-04-07T09:18:04.476Z,17.71
2019-04-07T09:19:06.792Z,17.85
2019-04-07T09:20:08.532Z,17.74
2019-04-07T09:21:04.594Z,17.92
2019-04-07T09:22:04.439Z,17.98
2019-04-07T09:23:06.578Z,18.11
2019-04-07T09:24:05.013Z,18.15
2019-04-07T09:25:08.506Z,18.07
2019-04-07T09:26:04.403Z,17.90
2019-04-07T09:27:04.405Z,17.85
2019-04-07T09:28:04.400Z,17.72
2019-04-07T09:29:05.112Z,17.80
2019-04-07T09:30:06.095Z,17.76
2019-04-07T09:31:04.604Z,17.80
2019-04-07T09:32:04.429Z,17.79
2019-04-07T09:33:04.397Z,17.83
2019-04-07T09:34:04.391Z,18.01
2019-04-07T09:35:07.068Z,18.15
2019-04-07T09:36:04.401Z,18.20
2019-04-07T09:37:04.503Z,18.35
2019-04-07T09:38:04.383Z,18.37
2019-04-07T09:39:04.381Z,18.15
2019-04-07T09:40:05.487Z,18.28
2019-04-07T09:41:04.379Z,18.22
2019-04-07T09:42:04.377Z,18.29
2019-04-07T09:43:05.347Z,18.31
2019-04-07T09:44:05.216Z,18.28
2019-04-07T09:45:07.425Z,18.45
2019-04-07T09:46:04.952Z,18.58
2019-04-07T09:47:04.367Z,18.31
2019-04-07T09:48:04.372Z,18.38
2019-04-07T09:49:04.548Z,18.31
2019-04-07T09:50:04.845Z,18.44
2019-04-07T09:51:07.163Z,18.26
2019-04-07T09:52:04.359Z,18.26
2019-04-07T09:53:04.363Z,18.20
2019-04-07T09:54:05.164Z,18.18
2019-04-07T09:55:04.573Z,18.26
2019-04-07T09:56:05.739Z,18.40
2019-04-07T09:57:06.952Z,18.56
2019-04-07T09:58:07.968Z,18.56
2019-04-07T09:59:04.351Z,18.73
2019-04-07T10:00:07.123Z,18.77
2019-04-07T10:01:06.717Z,18.70
2019-04-07T10:02:06.293Z,18.71
2019-04-07T10:03:07.738Z,18.84
2019-04-07T10:04:07.077Z,18.71
2019-04-07T10:05:04.338Z,18.38
2019-04-07T10:06:04.338Z,18.40
2019-04-07T10:07:04.750Z,18.62
2019-04-07T10:08:04.432Z,18.50
2019-04-07T10:09:04.348Z,18.62
2019-04-07T10:10:10.797Z,18.68
2019-04-07T10:11:05.223Z,18.74
2019-04-07T10:12:04.804Z,18.70
2019-04-07T10:13:04.331Z,18.66
2019-04-07T10:14:04.474Z,18.75
2019-04-07T10:15:04.322Z,18.88
2019-04-07T10:16:07.811Z,18.92
2019-04-07T10:17:05.187Z,18.80
2019-04-07T10:18:04.318Z,18.73
2019-04-07T10:19:04.331Z,18.78
2019-04-07T10:20:05.128Z,18.83
2019-04-07T10:21:04.313Z,18.75
2019-04-07T10:22:04.314Z,18.65
2019-04-07T10:23:05.073Z,18.50
2019-04-07T10:24:04.307Z,18.68
2019-04-07T10:25:04.466Z,18.66
2019-04-07T10:26:04.307Z,18.68
2019-04-07T10:27:04.312Z,18.80
2019-04-07T10:28:07.225Z,18.77
2019-04-07T10:29:04.616Z,18.88
2019-04-07T10:30:04.669Z,18.75
2019-04-07T10:31:04.753Z,18.77
2019-04-07T10:32:04.615Z,18.80
2019-04-07T10:33:04.311Z,18.65
2019-04-07T10:34:05.072Z,18.81
2019-04-07T10:35:04.293Z,18.47
2019-04-07T10:36:04.890Z,18.55
2019-04-07T10:37:05.012Z,18.73
2019-04-07T10:38:04.345Z,18.88
2019-04-07T10:39:04.400Z,19.11
2019-04-07T10:40:16.343Z,19.18
2019-04-07T10:41:04.488Z,19.30
2019-04-07T10:42:05.298Z,19.21
2019-04-07T10:43:04.282Z,18.86
2019-04-07T10:44:04.930Z,18.73
2019-04-07T10:45:04.807Z,18.71
2019-04-07T10:46:04.280Z,18.77
2019-04-07T10:47:04.917Z,19.00
2019-04-07T10:48:04.275Z,18.99
2019-04-07T10:49:04.455Z,19.02
2019-04-07T10:50:07.381Z,19.16
2019-04-07T10:51:04.481Z,19.37
2019-04-07T10:52:04.509Z,19.14
2019-04-07T10:53:04.887Z,19.24
2019-04-07T10:54:04.907Z,19.33
2019-04-07T10:55:04.955Z,19.34
2019-04-07T10:56:04.263Z,19.33
2019-04-07T10:57:05.005Z,19.40
2019-04-07T10:58:04.350Z,19.48
2019-04-07T10:59:04.391Z,19.36
2019-04-07T11:00:04.652Z,19.27
2019-04-07T11:01:04.259Z,19.14
2019-04-07T11:02:04.259Z,19.19
2019-04-07T11:03:04.873Z,18.93
2019-04-07T11:04:04.910Z,18.92
2019-04-07T11:05:05.101Z,19.12
2019-04-07T11:06:05.122Z,19.24
2019-04-07T11:07:04.555Z,19.30
2019-04-07T11:08:04.969Z,19.24
2019-04-07T11:09:04.768Z,19.36
2019-04-07T11:10:04.829Z,19.30
2019-04-07T11:11:04.542Z,19.39
2019-04-07T11:12:04.628Z,19.45
2019-04-07T11:13:04.402Z,19.70
2019-04-07T11:14:04.850Z,19.84
2019-04-07T11:15:04.905Z,19.69
2019-04-07T11:16:04.950Z,19.49
2019-04-07T11:17:04.851Z,19.26
2019-04-07T11:18:04.390Z,19.16
2019-04-07T11:19:04.728Z,19.30
2019-04-07T11:20:04.284Z,19.39
2019-04-07T11:21:04.662Z,19.48
2019-04-07T11:22:04.621Z,19.71
2019-04-07T11:23:04.235Z,19.89
2019-04-07T11:24:04.233Z,19.85
2019-04-07T11:25:04.231Z,19.82
2019-04-07T11:26:04.663Z,19.77
2019-04-07T11:27:04.918Z,19.51
2019-04-07T11:28:04.631Z,19.33
2019-04-07T11:29:04.229Z,19.44
2019-04-07T11:30:05.102Z,19.52
2019-04-07T11:31:04.227Z,19.49
2019-04-07T11:32:04.229Z,19.69
2019-04-07T11:33:05.086Z,19.48
2019-04-07T11:34:04.418Z,19.66
2019-04-07T11:35:04.907Z,19.81
2019-04-07T11:36:04.225Z,19.73
2019-04-07T11:37:04.915Z,19.49
2019-04-07T11:38:04.706Z,19.40
2019-04-07T11:39:04.223Z,19.22
2019-04-07T11:40:04.821Z,19.14
2019-04-07T11:41:04.328Z,19.21
2019-04-07T11:42:05.747Z,19.33
2019-04-07T11:43:04.440Z,19.41
2019-04-07T11:44:04.217Z,19.77
2019-04-07T11:45:04.951Z,19.63
2019-04-07T11:46:04.636Z,19.82
2019-04-07T11:47:04.940Z,19.94
2019-04-07T11:48:04.433Z,20.02
2019-04-07T11:49:04.333Z,20.13
2019-04-07T11:50:04.938Z,20.25
2019-04-07T11:51:04.210Z,20.26
2019-04-07T11:52:04.210Z,20.51
2019-04-07T11:53:04.939Z,20.39
2019-04-07T11:54:04.212Z,19.76
2019-04-07T11:55:04.206Z,19.77
2019-04-07T11:56:08.128Z,19.88
2019-04-07T11:57:05.521Z,20.04
2019-04-07T11:58:13.677Z,20.16
2019-04-07T11:59:06.851Z,19.71
2019-04-07T12:00:04.205Z,19.88
2019-04-07T12:01:04.716Z,19.79
2019-04-07T12:02:06.839Z,19.73
2019-04-07T12:03:04.935Z,20.06
2019-04-07T12:04:04.202Z,20.14
2019-04-07T12:05:04.413Z,20.00
2019-04-07T12:06:04.214Z,19.96
2019-04-07T12:07:04.647Z,19.67
2019-04-07T12:08:04.960Z,19.33
2019-04-07T12:09:04.890Z,19.34
2019-04-07T12:10:05.060Z,19.55
2019-04-07T12:11:06.241Z,19.62
2019-04-07T12:12:04.747Z,19.55
2019-04-07T12:13:04.810Z,19.74
2019-04-07T12:14:04.198Z,19.71
2019-04-07T12:15:04.240Z,19.49
2019-04-07T12:16:04.609Z,19.62
2019-04-07T12:17:07.571Z,19.41
2019-04-07T12:18:07.124Z,19.56
2019-04-07T12:19:04.498Z,19.63
2019-04-07T12:20:04.297Z,19.66
2019-04-07T12:21:06.167Z,19.47
2019-04-07T12:22:08.746Z,19.73
2019-04-07T12:23:04.796Z,19.76
2019-04-07T12:24:04.776Z,19.73
2019-04-07T12:25:05.419Z,19.82
2019-04-07T12:26:05.138Z,19.99
2019-04-07T12:27:04.798Z,20.16
2019-04-07T12:28:04.315Z,20.18
2019-04-07T12:29:04.182Z,20.14
2019-04-07T12:30:04.398Z,19.96
2019-04-07T12:31:04.185Z,20.03
2019-04-07T12:32:05.107Z,20.03
2019-04-07T12:33:06.527Z,20.10
2019-04-07T12:34:04.965Z,20.02
2019-04-07T12:35:04.291Z,20.22
2019-04-07T12:36:05.106Z,20.37
2019-04-07T12:37:07.570Z,20.34
2019-04-07T12:38:05.184Z,20.50
2019-04-07T12:39:04.279Z,20.48
2019-04-07T12:40:04.375Z,20.39
2019-04-07T12:41:13.479Z,20.36
2019-04-07T12:42:06.260Z,20.50
2019-04-07T12:43:04.630Z,20.48
2019-04-07T12:44:04.528Z,20.63
2019-04-07T12:45:04.763Z,20.55
2019-04-07T12:46:04.190Z,20.58
2019-04-07T12:47:04.875Z,20.37
2019-04-07T12:48:04.735Z,20.22
2019-04-07T12:49:07.748Z,20.02
2019-04-07T12:50:05.092Z,19.95
2019-04-07T12:51:04.175Z,20.02
2019-04-07T12:52:04.371Z,20.03
2019-04-07T12:53:05.931Z,20.19
2019-04-07T12:54:07.391Z,20.22
2019-04-07T12:55:04.818Z,20.00
2019-04-07T12:56:04.820Z,20.03
2019-04-07T12:57:06.603Z,20.03